Time;durP1;ratioP1;P1;durP2;ratioP2;P2;SDS_P1;SDS_P2;PMS_P1;PMS_P2;Temp;Humidity;BMP_temperature;BMP_pressure;BME280_temperature;BME280_humidity;BME280_pressure;Samples;Min_cycle;Max_cycle;Signal;HPM_P1;HPM_P2
2022/05/28 00:00:57;;;;;;;38.38;15.95;;;;;;;;;;5017287;28;20209;-46
2022/05/28 00:03:27;;;;;;;19.92;9.68;;;;;;;;;;5017051;28;20604;-46
2022/05/28 00:05:54;;;;;;;15.35;8.15;;;;;;;;;;5017566;28;20229;-46
2022/05/28 00:08:21;;;;;;;18.15;9.60;;;;;;;;;;5016974;28;20216;-45
2022/05/28 00:10:48;;;;;;;13.25;8.57;;;;;;;;;;5017801;28;20240;-46
2022/05/28 00:13:15;;;;;;;17.77;10.32;;;;;;;;;;5017263;28;20212;-46
2022/05/28 00:15:43;;;;;;;13.95;8.32;;;;;;;;;;5017200;28;20532;-46
2022/05/28 00:18:10;;;;;;;26.33;13.82;;;;;;;;;;5017223;28;20259;-46
2022/05/28 00:20:38;;;;;;;48.40;21.58;;;;;;;;;;5017033;28;20263;-46
2022/05/28 00:23:05;;;;;;;39.20;17.27;;;;;;;;;;5016219;28;20229;-46
2022/05/28 00:25:32;;;;;;;42.83;19.92;;;;;;;;;;5016726;28;20212;-46
2022/05/28 00:27:59;;;;;;;29.42;13.30;;;;;;;;;;5016963;28;20236;-47
2022/05/28 00:30:26;;;;;;;25.98;12.25;;;;;;;;;;5016528;28;20225;-47
2022/05/28 00:32:53;;;;;;;27.17;12.65;;;;;;;;;;5016649;28;20591;-46
2022/05/28 00:35:20;;;;;;;19.20;8.50;;;;;;;;;;5016742;28;20536;-46
2022/05/28 00:37:47;;;;;;;18.58;9.73;;;;;;;;;;5016734;28;20224;-46
2022/05/28 00:40:19;;;;;;;15.27;8.00;;;;;;;;;;5016534;28;20205;-46
2022/05/28 00:42:46;;;;;;;14.20;7.10;;;;;;;;;;5016834;28;20237;-45
2022/05/28 00:45:14;;;;;;;12.48;5.65;;;;;;;;;;5016232;28;20632;-46
2022/05/28 00:47:45;;;;;;;17.13;6.75;;;;;;;;;;5016358;28;20678;-46
2022/05/28 00:50:13;;;;;;;15.55;9.20;;;;;;;;;;5016527;28;20233;-46
2022/05/28 00:52:41;;;;;;;32.60;21.65;;;;;;;;;;5017213;28;20296;-45
2022/05/28 00:55:09;;;;;;;45.15;18.00;;;;;;;;;;5015689;28;20523;-45
2022/05/28 00:57:39;;;;;;;100.72;29.92;;;;;;;;;;5016954;28;20252;-46
2022/05/28 01:00:09;;;;;;;111.93;35.67;;;;;;;;;;5015065;28;20597;-46
2022/05/28 01:02:53;;;;;;;46.83;15.52;;;;;;;;;;5015204;28;20200;-46
2022/05/28 01:05:30;;;;;;;29.10;11.40;;;;;;;;;;5016048;28;20240;-47
2022/05/28 01:07:57;;;;;;;18.42;8.43;;;;;;;;;;5015188;28;20186;-46
2022/05/28 01:10:32;;;;;;;16.00;7.07;;;;;;;;;;5015989;28;20213;-46
2022/05/28 01:13:22;;;;;;;11.38;6.32;;;;;;;;;;5015059;28;20205;-46
2022/05/28 01:15:53;;;;;;;13.35;5.43;;;;;;;;;;5015903;28;20232;-46
2022/05/28 01:18:39;;;;;;;6.60;3.90;;;;;;;;;;5015546;28;20186;-47
2022/05/28 01:21:10;;;;;;;9.18;3.38;;;;;;;;;;5014919;28;20189;-47
2022/05/28 01:23:46;;;;;;;7.50;3.40;;;;;;;;;;5015723;28;20217;-45
2022/05/28 01:26:25;;;;;;;13.48;3.78;;;;;;;;;;5016161;28;20207;-45
2022/05/28 01:29:05;;;;;;;6.82;3.67;;;;;;;;;;5015764;28;20658;-45
2022/05/28 01:31:32;;;;;;;9.93;3.03;;;;;;;;;;5015519;28;20641;-46
2022/05/28 01:34:01;;;;;;;7.88;3.33;;;;;;;;;;5014055;28;20564;-46
2022/05/28 01:36:29;;;;;;;10.10;3.30;;;;;;;;;;5014816;28;20201;-47
2022/05/28 01:38:56;;;;;;;9.48;2.92;;;;;;;;;;5015359;28;20698;-46
2022/05/28 01:41:24;;;;;;;8.27;3.45;;;;;;;;;;5015511;28;20213;-47
2022/05/28 01:43:52;;;;;;;7.32;2.90;;;;;;;;;;5015332;28;20209;-46
2022/05/28 01:46:20;;;;;;;3.97;2.83;;;;;;;;;;5014171;28;20296;-45
2022/05/28 01:48:51;;;;;;;8.88;3.40;;;;;;;;;;5014458;28;20209;-46
2022/05/28 01:51:19;;;;;;;6.32;3.25;;;;;;;;;;5014126;28;20686;-45
2022/05/28 01:56:31;;;;;;;10.80;3.97;;;;;;;;;;5014892;28;20205;-46
2022/05/28 01:58:58;;;;;;;8.85;3.47;;;;;;;;;;5015120;28;20267;-45
2022/05/28 02:01:26;;;;;;;11.18;3.45;;;;;;;;;;5015210;28;20201;-46
2022/05/28 02:03:59;;;;;;;6.70;3.75;;;;;;;;;;5014692;28;20201;-46
2022/05/28 02:06:26;;;;;;;13.15;6.00;;;;;;;;;;5015171;28;20263;-46
2022/05/28 02:08:55;;;;;;;22.65;10.63;;;;;;;;;;5015014;28;20267;-46
2022/05/28 02:11:28;;;;;;;15.32;8.70;;;;;;;;;;5014633;28;20225;-47
2022/05/28 02:13:57;;;;;;;14.57;6.60;;;;;;;;;;5014703;28;20197;-46
2022/05/28 02:16:29;;;;;;;7.93;4.50;;;;;;;;;;5014122;28;20263;-46
2022/05/28 02:18:59;;;;;;;10.25;5.28;;;;;;;;;;5014716;28;20205;-46
2022/05/28 02:21:39;;;;;;;6.97;3.80;;;;;;;;;;5014087;28;20228;-46
2022/05/28 02:24:15;;;;;;;14.10;6.05;;;;;;;;;;5013796;28;20701;-46
2022/05/28 02:26:51;;;;;;;37.80;13.27;;;;;;;;;;5014831;28;20231;-46
2022/05/28 02:29:19;;;;;;;13.80;5.75;;;;;;;;;;5014578;28;20205;-46
2022/05/28 02:31:47;;;;;;;23.30;11.60;;;;;;;;;;5014730;28;20229;-45
2022/05/28 02:34:14;;;;;;;14.00;4.78;;;;;;;;;;5014476;28;20205;-46
2022/05/28 02:36:42;;;;;;;32.05;15.88;;;;;;;;;;5014552;28;20640;-46
2022/05/28 02:39:10;;;;;;;15.13;6.65;;;;;;;;;;5014606;28;20201;-45
2022/05/28 02:41:37;;;;;;;10.35;4.57;;;;;;;;;;5014578;28;20279;-46
2022/05/28 02:44:05;;;;;;;10.82;4.00;;;;;;;;;;5014475;28;20205;-46
2022/05/28 02:46:32;;;;;;;15.07;5.05;;;;;;;;;;5018019;28;20205;-45
2022/05/28 02:49:00;;;;;;;17.35;6.97;;;;;;;;;;5018807;28;20206;-45
2022/05/28 02:51:27;;;;;;;9.18;3.53;;;;;;;;;;5018347;28;20244;-50
2022/05/28 02:53:54;;;;;;;8.48;3.25;;;;;;;;;;5018577;28;20280;-45
2022/05/28 02:56:21;;;;;;;14.23;5.85;;;;;;;;;;5018693;28;20217;-46
2022/05/28 02:58:49;;;;;;;10.27;4.43;;;;;;;;;;5018480;28;20206;-45
2022/05/28 03:01:34;;;;;;;7.45;3.63;;;;;;;;;;5018173;28;20766;-45
2022/05/28 03:04:04;;;;;;;11.35;5.07;;;;;;;;;;5018260;28;20620;-46
2022/05/28 03:06:31;;;;;;;10.80;2.97;;;;;;;;;;5018229;28;20272;-47
2022/05/28 03:08:58;;;;;;;7.43;2.92;;;;;;;;;;5018461;28;20208;-46
2022/05/28 03:11:25;;;;;;;14.18;4.72;;;;;;;;;;5018076;28;20575;-45
2022/05/28 03:13:52;;;;;;;7.70;3.35;;;;;;;;;;5023478;28;20204;-45
2022/05/28 03:16:19;;;;;;;8.60;3.08;;;;;;;;;;5023689;28;20198;-46
2022/05/28 03:18:46;;;;;;;7.15;2.78;;;;;;;;;;5017859;28;20667;-47
2022/05/28 03:21:13;;;;;;;5.82;2.72;;;;;;;;;;5018060;28;20640;-50
2022/05/28 03:23:40;;;;;;;6.95;2.70;;;;;;;;;;5003299;28;20201;-51
2022/05/28 03:26:16;;;;;;;11.07;2.50;;;;;;;;;;4999660;28;20202;-48
2022/05/28 03:28:45;;;;;;;8.63;2.72;;;;;;;;;;5004409;28;20596;-50
2022/05/28 03:31:12;;;;;;;5.80;2.55;;;;;;;;;;5011094;28;20222;-46
2022/05/28 03:33:40;;;;;;;10.00;2.88;;;;;;;;;;5023277;28;20205;-46
2022/05/28 03:36:07;;;;;;;12.32;2.75;;;;;;;;;;5013167;28;20213;-48
2022/05/28 03:38:36;;;;;;;6.40;2.15;;;;;;;;;;5007753;28;20204;-47
2022/05/28 03:41:03;;;;;;;5.22;2.35;;;;;;;;;;5006883;28;20293;-46
2022/05/28 03:43:30;;;;;;;8.07;2.40;;;;;;;;;;5005865;28;20718;-48
2022/05/28 03:45:58;;;;;;;7.97;2.33;;;;;;;;;;5007518;28;20202;-47
2022/05/28 03:48:25;;;;;;;5.80;2.33;;;;;;;;;;5017443;28;20205;-50
2022/05/28 03:50:52;;;;;;;5.97;1.95;;;;;;;;;;5012446;28;20695;-47
2022/05/28 03:53:19;;;;;;;6.30;2.00;;;;;;;;;;5011791;28;20814;-48
2022/05/28 03:55:46;;;;;;;6.28;1.88;;;;;;;;;;5005026;28;20236;-45
2022/05/28 03:58:14;;;;;;;7.95;2.72;;;;;;;;;;5037067;28;20226;-46
2022/05/28 04:00:41;;;;;;;10.80;2.90;;;;;;;;;;5006271;28;20222;-52
2022/05/28 04:03:08;;;;;;;12.93;4.82;;;;;;;;;;4999699;28;20302;-47
2022/05/28 04:05:37;;;;;;;7.63;2.20;;;;;;;;;;5008111;28;20233;-51
2022/05/28 04:08:05;;;;;;;8.45;2.35;;;;;;;;;;4981464;28;20226;-48
2022/05/28 04:10:32;;;;;;;9.20;3.90;;;;;;;;;;5002486;28;20233;-51
2022/05/28 04:12:59;;;;;;;7.03;3.08;;;;;;;;;;4999934;28;20246;-51
2022/05/28 04:15:28;;;;;;;8.73;2.30;;;;;;;;;;4999135;28;20218;-48
2022/05/28 04:17:55;;;;;;;5.07;1.90;;;;;;;;;;5012123;28;20229;-50
2022/05/28 04:20:23;;;;;;;5.43;2.10;;;;;;;;;;5002398;28;20218;-49
2022/05/28 04:22:50;;;;;;;5.63;2.08;;;;;;;;;;5013271;28;20229;-50
2022/05/28 04:25:18;;;;;;;9.40;1.75;;;;;;;;;;5009787;28;20237;-50
2022/05/28 04:27:44;;;;;;;5.90;1.77;;;;;;;;;;5012746;28;20319;-53
2022/05/28 04:30:12;;;;;;;4.90;1.55;;;;;;;;;;5008498;28;20284;-51
2022/05/28 04:32:39;;;;;;;4.78;1.63;;;;;;;;;;5011206;28;20541;-52
2022/05/28 04:35:07;;;;;;;5.25;2.10;;;;;;;;;;5002474;28;20333;-47
2022/05/28 04:37:35;;;;;;;9.10;2.13;;;;;;;;;;5003255;28;21138;-48
2022/05/28 04:40:03;;;;;;;7.68;1.58;;;;;;;;;;5009016;28;20226;-48
2022/05/28 04:42:31;;;;;;;6.30;1.58;;;;;;;;;;5025364;28;20214;-46
2022/05/28 04:44:58;;;;;;;5.28;1.88;;;;;;;;;;5014844;28;20229;-47
2022/05/28 04:47:25;;;;;;;10.68;1.77;;;;;;;;;;5007070;28;20222;-47
2022/05/28 04:49:52;;;;;;;7.03;1.60;;;;;;;;;;5006441;28;20221;-47
2022/05/28 04:52:20;;;;;;;4.72;1.65;;;;;;;;;;5005506;28;20257;-49
2022/05/28 04:54:47;;;;;;;5.53;1.70;;;;;;;;;;5011266;28;20308;-50
2022/05/28 04:57:15;;;;;;;5.30;1.80;;;;;;;;;;5010116;28;21485;-49
2022/05/28 04:59:42;;;;;;;9.90;1.80;;;;;;;;;;5004441;28;20276;-49
2022/05/28 05:02:09;;;;;;;6.05;1.60;;;;;;;;;;5001169;28;20221;-50
2022/05/28 05:04:37;;;;;;;6.60;1.83;;;;;;;;;;5000055;28;20222;-51
2022/05/28 05:07:04;;;;;;;5.93;1.85;;;;;;;;;;4999093;28;20234;-47
2022/05/28 05:09:31;;;;;;;5.97;1.58;;;;;;;;;;5000087;28;20222;-49
2022/05/28 05:11:58;;;;;;;5.65;1.60;;;;;;;;;;5008204;28;20578;-47
2022/05/28 05:14:26;;;;;;;5.93;1.90;;;;;;;;;;5000325;28;20542;-46
2022/05/28 05:16:52;;;;;;;9.55;2.33;;;;;;;;;;5010293;28;20306;-56
2022/05/28 05:19:19;;;;;;;5.93;1.50;;;;;;;;;;5007762;28;20216;-47
2022/05/28 05:21:47;;;;;;;8.63;1.77;;;;;;;;;;5003815;28;20292;-47
2022/05/28 05:24:14;;;;;;;6.18;1.83;;;;;;;;;;5002911;28;20596;-51
2022/05/28 05:26:41;;;;;;;6.65;1.63;;;;;;;;;;5004166;28;20213;-45
2022/05/28 05:29:08;;;;;;;8.23;1.70;;;;;;;;;;5001733;28;20350;-46
2022/05/28 05:31:35;;;;;;;3.80;1.30;;;;;;;;;;5004688;28;20627;-49
2022/05/28 05:34:04;;;;;;;5.85;1.77;;;;;;;;;;5002616;28;20228;-47
2022/05/28 05:36:31;;;;;;;8.00;2.00;;;;;;;;;;5003207;28;20660;-47
2022/05/28 05:38:58;;;;;;;3.80;1.60;;;;;;;;;;5012593;28;20232;-50
2022/05/28 05:41:25;;;;;;;6.53;1.65;;;;;;;;;;5014464;28;20214;-47
2022/05/28 05:43:52;;;;;;;6.22;1.83;;;;;;;;;;5011599;28;20225;-46
2022/05/28 05:46:19;;;;;;;5.20;1.40;;;;;;;;;;5014924;28;20248;-46
2022/05/28 05:48:47;;;;;;;5.32;1.40;;;;;;;;;;5014324;28;20267;-48
2022/05/28 05:51:16;;;;;;;4.75;1.40;;;;;;;;;;5014916;28;20280;-47
2022/05/28 05:53:43;;;;;;;5.22;1.50;;;;;;;;;;5014057;28;20229;-51
2022/05/28 05:56:10;;;;;;;8.48;1.50;;;;;;;;;;5001222;28;20230;-47
2022/05/28 05:58:38;;;;;;;4.53;1.58;;;;;;;;;;5002673;28;20295;-48
2022/05/28 06:01:06;;;;;;;5.50;1.70;;;;;;;;;;5024218;28;20883;-48
2022/05/28 06:03:33;;;;;;;7.75;1.88;;;;;;;;;;5020159;28;20221;-54
2022/05/28 06:06:06;;;;;;;8.63;2.40;;;;;;;;;;5004919;28;20381;-57
2022/05/28 06:08:33;;;;;;;5.20;2.10;;;;;;;;;;5006498;28;20228;-58
2022/05/28 06:11:00;;;;;;;7.13;2.30;;;;;;;;;;5007412;28;20225;-57
2022/05/28 06:13:27;;;;;;;5.03;2.50;;;;;;;;;;5044802;28;20233;-57
2022/05/28 06:15:54;;;;;;;6.68;2.90;;;;;;;;;;5009655;28;20256;-54
2022/05/28 06:18:21;;;;;;;8.27;3.35;;;;;;;;;;5012967;28;20579;-56
2022/05/28 06:20:49;;;;;;;7.90;3.22;;;;;;;;;;5012664;28;20213;-56
2022/05/28 06:23:17;;;;;;;6.93;2.63;;;;;;;;;;5012978;28;20227;-57
2022/05/28 06:25:45;;;;;;;7.78;3.15;;;;;;;;;;5010180;28;20241;-56
2022/05/28 06:28:12;;;;;;;6.18;3.05;;;;;;;;;;4978893;28;20240;-57
2022/05/28 06:30:40;;;;;;;9.18;3.13;;;;;;;;;;5011190;28;20218;-57
2022/05/28 06:33:07;;;;;;;9.02;2.85;;;;;;;;;;5004551;28;20691;-53
2022/05/28 06:35:35;;;;;;;7.15;2.45;;;;;;;;;;5005706;28;20221;-57
2022/05/28 06:38:02;;;;;;;7.45;2.50;;;;;;;;;;5012274;28;20233;-57
2022/05/28 06:40:29;;;;;;;7.00;2.15;;;;;;;;;;5012675;28;20221;-56
2022/05/28 06:42:56;;;;;;;7.28;1.90;;;;;;;;;;5013015;28;20217;-56
2022/05/28 06:45:24;;;;;;;10.73;2.00;;;;;;;;;;5009973;28;20232;-57
2022/05/28 06:47:52;;;;;;;14.80;2.42;;;;;;;;;;5012411;28;20232;-57
2022/05/28 06:53:10;;;;;;;11.32;2.25;;;;;;;;;;5009729;28;20229;-55
2022/05/28 06:55:37;;;;;;;6.80;1.50;;;;;;;;;;5014018;28;20221;-57
2022/05/28 06:58:06;;;;;;;5.78;1.50;;;;;;;;;;5019295;28;20232;-57
2022/05/28 07:00:34;;;;;;;3.78;1.30;;;;;;;;;;5022263;28;20245;-55
2022/05/28 07:03:03;;;;;;;3.75;1.05;;;;;;;;;;5006467;28;20226;-57
2022/05/28 07:05:30;;;;;;;6.88;1.20;;;;;;;;;;4993584;28;20242;-55
2022/05/28 07:07:57;;;;;;;4.07;1.30;;;;;;;;;;4993475;28;20241;-57
2022/05/28 07:10:25;;;;;;;3.67;1.25;;;;;;;;;;4994173;28;20230;-57
2022/05/28 07:12:52;;;;;;;5.95;1.52;;;;;;;;;;4994475;28;20214;-58
2022/05/28 07:15:19;;;;;;;6.15;1.35;;;;;;;;;;4994299;28;20210;-58
2022/05/28 07:17:46;;;;;;;3.95;1.20;;;;;;;;;;4992729;28;20677;-58
2022/05/28 07:20:13;;;;;;;6.05;1.38;;;;;;;;;;4993675;28;20198;-58
2022/05/28 07:22:40;;;;;;;2.90;1.00;;;;;;;;;;4994654;28;20220;-57
2022/05/28 07:25:09;;;;;;;3.17;1.05;;;;;;;;;;4994669;28;20202;-58
2022/05/28 07:27:36;;;;;;;5.50;1.20;;;;;;;;;;4994730;28;20213;-58
2022/05/28 07:30:04;;;;;;;4.95;1.45;;;;;;;;;;4994340;28;20292;-57
2022/05/28 07:32:31;;;;;;;2.53;0.70;;;;;;;;;;4996033;28;20230;-58
2022/05/28 07:34:58;;;;;;;1.48;0.60;;;;;;;;;;4998075;28;20198;-58
2022/05/28 07:37:26;;;;;;;2.90;1.00;;;;;;;;;;4998418;28;20213;-58
2022/05/28 07:39:53;;;;;;;3.13;0.98;;;;;;;;;;5016305;28;20204;-58
2022/05/28 07:42:20;;;;;;;2.28;0.82;;;;;;;;;;5014274;28;20198;-58
2022/05/28 07:44:47;;;;;;;3.05;1.00;;;;;;;;;;5016207;28;20190;-57
2022/05/28 07:47:14;;;;;;;4.55;1.08;;;;;;;;;;5016265;28;20292;-58
2022/05/28 07:49:41;;;;;;;5.15;1.17;;;;;;;;;;4998023;28;20202;-58
2022/05/28 07:52:08;;;;;;;5.00;1.30;;;;;;;;;;5013623;28;20225;-58
2022/05/28 07:54:35;;;;;;;8.27;1.10;;;;;;;;;;5011658;28;20197;-58
2022/05/28 07:57:03;;;;;;;4.45;1.50;;;;;;;;;;5016043;28;20535;-57
2022/05/28 07:59:30;;;;;;;4.35;0.90;;;;;;;;;;5013599;28;20190;-58
2022/05/28 08:01:58;;;;;;;2.88;0.80;;;;;;;;;;5016069;28;20280;-57
2022/05/28 08:04:25;;;;;;;4.55;0.80;;;;;;;;;;5014875;28;20225;-58
2022/05/28 08:06:52;;;;;;;3.45;1.05;;;;;;;;;;5016751;28;20240;-58
2022/05/28 08:09:19;;;;;;;2.35;0.90;;;;;;;;;;5017355;28;20200;-58
2022/05/28 08:11:46;;;;;;;6.55;1.00;;;;;;;;;;5017121;28;20251;-58
2022/05/28 08:14:13;;;;;;;5.03;1.35;;;;;;;;;;5011997;28;20251;-58
2022/05/28 08:16:40;;;;;;;6.18;1.10;;;;;;;;;;5016507;28;20571;-58
2022/05/28 08:19:07;;;;;;;5.85;1.38;;;;;;;;;;5005211;28;20197;-58
2022/05/28 08:24:20;;;;;;;6.63;1.25;;;;;;;;;;5001123;28;20225;-57
2022/05/28 08:26:47;;;;;;;6.90;1.23;;;;;;;;;;5015417;28;20569;-58
2022/05/28 08:29:14;;;;;;;11.18;1.10;;;;;;;;;;5029220;28;20225;-57
2022/05/28 08:31:41;;;;;;;3.50;1.10;;;;;;;;;;5023986;28;20240;-58
2022/05/28 08:34:08;;;;;;;2.50;0.80;;;;;;;;;;5014833;28;20696;-57
2022/05/28 08:36:35;;;;;;;2.67;0.80;;;;;;;;;;5015178;28;20295;-57
2022/05/28 08:39:02;;;;;;;2.47;0.90;;;;;;;;;;5014560;28;20614;-58
2022/05/28 08:41:55;;;;;;;4.63;0.82;;;;;;;;;;5005479;28;20702;-56
2022/05/28 08:44:25;;;;;;;4.82;1.00;;;;;;;;;;5005391;28;20218;-56
2022/05/28 08:47:21;;;;;;;2.30;1.05;;;;;;;;;;5011611;28;20229;-57
2022/05/28 08:49:49;;;;;;;6.40;1.20;;;;;;;;;;4999597;28;20225;-57
2022/05/28 08:52:28;;;;;;;2.72;1.02;;;;;;;;;;5046166;28;20237;-56
2022/05/28 08:55:08;;;;;;;1.42;0.90;;;;;;;;;;5015761;28;20282;-57
2022/05/28 08:57:35;;;;;;;3.83;1.05;;;;;;;;;;5011543;28;20221;-57
2022/05/28 09:00:10;;;;;;;3.72;1.02;;;;;;;;;;5014303;28;20543;-57
2022/05/28 09:02:37;;;;;;;4.45;1.33;;;;;;;;;;5006520;28;20678;-58
2022/05/28 09:05:15;;;;;;;2.80;1.35;;;;;;;;;;5004339;28;20230;-58
2022/05/28 09:07:42;;;;;;;5.38;1.40;;;;;;;;;;5007055;28;20245;-58
2022/05/28 09:10:11;;;;;;;3.00;1.25;;;;;;;;;;5012717;28;20214;-57
2022/05/28 09:12:45;;;;;;;3.30;1.42;;;;;;;;;;5011926;28;20244;-57
2022/05/28 09:15:12;;;;;;;7.45;1.60;;;;;;;;;;5007206;28;20228;-58
2022/05/28 09:17:46;;;;;;;6.70;1.20;;;;;;;;;;5011811;28;20252;-58
2022/05/28 09:20:16;;;;;;;9.27;1.55;;;;;;;;;;5012027;28;20264;-57
2022/05/28 09:22:44;;;;;;;4.00;1.35;;;;;;;;;;5007455;28;20220;-51
2022/05/28 09:25:11;;;;;;;3.40;1.23;;;;;;;;;;5005512;28;20209;-46
2022/05/28 09:28:07;;;;;;;2.95;1.15;;;;;;;;;;5002780;28;20337;-49
2022/05/28 09:30:46;;;;;;;5.20;1.30;;;;;;;;;;5004795;28;20209;-47
2022/05/28 09:33:23;;;;;;;10.68;2.30;;;;;;;;;;5010416;28;20229;-46
2022/05/28 09:36:02;;;;;;;3.70;1.10;;;;;;;;;;5004470;28;20213;-45
2022/05/28 09:38:53;;;;;;;5.28;1.30;;;;;;;;;;5011614;28;20268;-46
2022/05/28 09:41:29;;;;;;;3.30;1.23;;;;;;;;;;5015014;28;20236;-47
2022/05/28 09:44:17;;;;;;;5.75;1.25;;;;;;;;;;5013999;28;20217;-47
2022/05/28 09:46:45;;;;;;;4.28;1.20;;;;;;;;;;5014639;28;20695;-45
2022/05/28 09:49:23;;;;;;;5.18;1.40;;;;;;;;;;5014896;28;20247;-45
2022/05/28 09:51:56;;;;;;;9.05;1.50;;;;;;;;;;5014203;28;20233;-46
2022/05/28 09:54:30;;;;;;;7.30;1.50;;;;;;;;;;5014052;28;20316;-50
2022/05/28 09:57:09;;;;;;;6.15;1.60;;;;;;;;;;5014913;28;20307;-46
2022/05/28 10:00:02;;;;;;;3.25;1.30;;;;;;;;;;5014373;28;21552;-46
2022/05/28 10:02:41;;;;;;;8.38;1.63;;;;;;;;;;5014691;28;20236;-47
2022/05/28 10:05:17;;;;;;;4.20;1.50;;;;;;;;;;5013399;28;20245;-45
2022/05/28 10:07:48;;;;;;;6.75;1.52;;;;;;;;;;5014292;28;20228;-45
2022/05/28 10:10:18;;;;;;;7.30;1.30;;;;;;;;;;5014397;28;20229;-44
2022/05/28 10:12:45;;;;;;;6.00;1.45;;;;;;;;;;5013585;28;20248;-45
2022/05/28 10:15:14;;;;;;;5.47;1.77;;;;;;;;;;5014622;28;20267;-45
2022/05/28 10:17:43;;;;;;;5.50;1.30;;;;;;;;;;5014041;28;20225;-46
2022/05/28 10:20:16;;;;;;;3.17;1.20;;;;;;;;;;5007300;28;20240;-48
2022/05/28 10:22:45;;;;;;;5.00;1.40;;;;;;;;;;5002010;28;20222;-46
2022/05/28 10:25:28;;;;;;;8.88;1.60;;;;;;;;;;5002319;28;20220;-45
2022/05/28 10:27:55;;;;;;;5.60;1.25;;;;;;;;;;4987188;28;20232;-45
2022/05/28 10:30:31;;;;;;;6.25;1.67;;;;;;;;;;5009929;28;20229;-50
2022/05/28 10:33:02;;;;;;;3.15;1.00;;;;;;;;;;5012481;28;20553;-52
2022/05/28 10:35:31;;;;;;;4.50;1.10;;;;;;;;;;4999078;28;20221;-48
2022/05/28 10:38:07;;;;;;;3.88;0.95;;;;;;;;;;5007041;28;20267;-52
2022/05/28 10:40:58;;;;;;;6.32;1.13;;;;;;;;;;4998605;28;20190;-52
2022/05/28 10:43:27;;;;;;;6.97;1.10;;;;;;;;;;5007281;28;20578;-51
2022/05/28 10:46:06;;;;;;;4.97;0.90;;;;;;;;;;5009860;28;20212;-50
2022/05/28 10:48:34;;;;;;;5.53;1.15;;;;;;;;;;5009479;28;20199;-46
2022/05/28 10:51:50;;;;;;;3.20;1.10;;;;;;;;;;5008434;28;20632;-50
2022/05/28 10:54:52;;;;;;;2.35;1.10;;;;;;;;;;4997511;28;20237;-49
2022/05/28 10:57:34;;;;;;;5.10;1.27;;;;;;;;;;5004578;28;20209;-48
2022/05/28 11:00:04;;;;;;;3.60;0.90;;;;;;;;;;5002568;28;20232;-51
2022/05/28 11:02:37;;;;;;;6.03;1.35;;;;;;;;;;5004818;28;20221;-47
2022/05/28 11:05:33;;;;;;;4.88;0.82;;;;;;;;;;5007835;28;20336;-53
2022/05/28 11:08:10;;;;;;;6.18;1.00;;;;;;;;;;5013959;28;20229;-53
2022/05/28 11:10:55;;;;;;;4.28;1.17;;;;;;;;;;5013156;28;20190;-54
2022/05/28 11:13:43;;;;;;;7.65;0.98;;;;;;;;;;5014838;28;20220;-53
2022/05/28 11:16:13;;;;;;;5.35;1.10;;;;;;;;;;5016170;28;20190;-53
2022/05/28 11:19:07;;;;;;;3.42;0.85;;;;;;;;;;5014740;28;20189;-53
2022/05/28 11:21:53;;;;;;;3.80;0.90;;;;;;;;;;5016544;28;20186;-53
2022/05/28 11:24:20;;;;;;;5.30;0.88;;;;;;;;;;5016799;28;20262;-51
2022/05/28 11:27:38;;;;;;;4.40;1.05;;;;;;;;;;5016464;28;20691;-52
2022/05/28 11:30:20;;;;;;;2.33;0.82;;;;;;;;;;4985258;28;20209;-52
2022/05/28 11:33:27;;;;;;;9.77;1.23;;;;;;;;;;4999010;28;20322;-54
2022/05/28 11:36:03;;;;;;;3.30;0.82;;;;;;;;;;4925709;29;20205;-53
2022/05/28 11:38:37;;;;;;;8.23;1.20;;;;;;;;;;4912505;29;20199;-53
2022/05/28 11:41:47;;;;;;;7.93;1.02;;;;;;;;;;4925983;29;20212;-54
2022/05/28 11:44:20;;;;;;;7.60;1.05;;;;;;;;;;4923609;29;20581;-53
2022/05/28 11:47:14;;;;;;;4.72;1.20;;;;;;;;;;4914143;29;20361;-57
2022/05/28 11:53:36;;;;;;;6.15;1.17;;;;;;;;;;4859370;29;20253;-52
2022/05/28 11:56:11;;;;;;;5.90;1.10;;;;;;;;;;4860884;29;20678;-51
2022/05/28 11:58:48;;;;;;;5.57;1.00;;;;;;;;;;4919013;29;20224;-52
2022/05/28 12:01:24;;;;;;;2.38;1.10;;;;;;;;;;4929364;29;20250;-52
2022/05/28 12:03:52;;;;;;;5.28;1.02;;;;;;;;;;4941393;29;20701;-51
2022/05/28 12:06:35;;;;;;;5.78;1.08;;;;;;;;;;4938990;29;20243;-53
2022/05/28 12:09:21;;;;;;;6.93;1.27;;;;;;;;;;4937142;29;20227;-51
2022/05/28 12:12:03;;;;;;;1.65;0.80;;;;;;;;;;4980526;28;20232;-53
2022/05/28 12:14:37;;;;;;;5.10;1.20;;;;;;;;;;4995406;28;20233;-57
2022/05/28 12:17:16;;;;;;;6.18;0.93;;;;;;;;;;4996247;28;20226;-54
2022/05/28 12:19:56;;;;;;;3.03;1.00;;;;;;;;;;4995839;28;20238;-54
2022/05/28 12:22:39;;;;;;;6.53;1.17;;;;;;;;;;4995223;28;20849;-53
2022/05/28 12:25:28;;;;;;;7.40;1.13;;;;;;;;;;4996704;28;20241;-53
2022/05/28 12:27:55;;;;;;;2.78;0.90;;;;;;;;;;4996645;28;20329;-53
2022/05/28 12:30:25;;;;;;;5.45;1.10;;;;;;;;;;5008910;28;20222;-53
2022/05/28 12:32:52;;;;;;;5.78;1.13;;;;;;;;;;5015316;28;20229;-53
2022/05/28 12:35:25;;;;;;;3.63;1.00;;;;;;;;;;5004052;28;20232;-54
2022/05/28 12:37:58;;;;;;;5.45;1.17;;;;;;;;;;5004689;28;20230;-53
2022/05/28 12:40:28;;;;;;;3.08;0.68;;;;;;;;;;5008656;28;20232;-50
2022/05/28 12:43:19;;;;;;;1.73;0.70;;;;;;;;;;5015859;28;20239;-52
2022/05/28 12:45:48;;;;;;;2.60;1.00;;;;;;;;;;5005547;28;20198;-54
2022/05/28 12:48:20;;;;;;;2.58;0.95;;;;;;;;;;5014715;28;20209;-54
2022/05/28 12:51:15;;;;;;;2.88;0.68;;;;;;;;;;5002715;28;20221;-52
2022/05/28 12:53:54;;;;;;;3.35;0.88;;;;;;;;;;5008871;28;20225;-51
2022/05/28 12:56:26;;;;;;;6.03;0.80;;;;;;;;;;5002328;28;20530;-55
2022/05/28 12:58:53;;;;;;;3.72;0.70;;;;;;;;;;5006255;28;20221;-54
2022/05/28 13:01:28;;;;;;;6.00;0.90;;;;;;;;;;5012011;28;20233;-54
2022/05/28 13:03:56;;;;;;;6.20;1.00;;;;;;;;;;5006240;28;20594;-54
2022/05/28 13:06:28;;;;;;;3.95;1.00;;;;;;;;;;5013585;28;20264;-52
2022/05/28 13:09:04;;;;;;;3.63;1.08;;;;;;;;;;5012907;28;20256;-50
2022/05/28 13:11:42;;;;;;;5.20;0.80;;;;;;;;;;5005591;28;20217;-52
2022/05/28 13:14:46;;;;;;;2.78;0.70;;;;;;;;;;4995638;28;20264;-53
2022/05/28 13:17:22;;;;;;;5.80;1.00;;;;;;;;;;4997566;28;20237;-52
2022/05/28 13:20:08;;;;;;;5.60;0.90;;;;;;;;;;5026947;28;20257;-53
2022/05/28 13:22:38;;;;;;;10.13;1.40;;;;;;;;;;4995730;28;20241;-50
2022/05/28 13:25:09;;;;;;;3.58;1.00;;;;;;;;;;4995140;28;20226;-51
2022/05/28 13:28:11;;;;;;;5.07;1.20;;;;;;;;;;4995296;28;20237;-52
2022/05/28 13:30:47;;;;;;;4.65;0.95;;;;;;;;;;4995310;28;20225;-51
2022/05/28 13:33:16;;;;;;;7.50;1.17;;;;;;;;;;5000170;28;20237;-52
2022/05/28 13:35:46;;;;;;;2.45;0.90;;;;;;;;;;5014794;28;20232;-49
2022/05/28 13:38:20;;;;;;;6.60;1.08;;;;;;;;;;5014421;28;20256;-52
2022/05/28 13:40:48;;;;;;;2.28;0.95;;;;;;;;;;5013771;28;20236;-51
2022/05/28 13:43:18;;;;;;;2.50;1.00;;;;;;;;;;5011339;28;20687;-51
2022/05/28 13:45:47;;;;;;;1.45;0.63;;;;;;;;;;4994644;28;20563;-45
2022/05/28 13:48:20;;;;;;;4.80;0.73;;;;;;;;;;4999550;28;20209;-46
2022/05/28 13:50:48;;;;;;;1.10;0.70;;;;;;;;;;5012125;28;20304;-45
2022/05/28 13:53:24;;;;;;;3.35;0.60;;;;;;;;;;5009739;28;20222;-47
2022/05/28 13:55:59;;;;;;;1.08;0.52;;;;;;;;;;5013349;28;20228;-50
2022/05/28 13:58:40;;;;;;;1.80;0.70;;;;;;;;;;5012485;28;20670;-49
2022/05/28 14:01:32;;;;;;;2.45;0.60;;;;;;;;;;5006339;28;20234;-48
2022/05/28 14:04:17;;;;;;;3.10;0.70;;;;;;;;;;5004934;28;20229;-46
2022/05/28 14:06:51;;;;;;;2.50;0.63;;;;;;;;;;5018604;28;20231;-45
2022/05/28 14:09:19;;;;;;;2.58;0.70;;;;;;;;;;5012103;28;20217;-48
2022/05/28 14:11:49;;;;;;;5.13;0.75;;;;;;;;;;5012305;28;20714;-45
2022/05/28 14:14:24;;;;;;;2.45;0.80;;;;;;;;;;5007994;28;20233;-46
2022/05/28 14:16:55;;;;;;;2.15;0.57;;;;;;;;;;5012692;28;20216;-51
2022/05/28 14:19:25;;;;;;;4.22;0.70;;;;;;;;;;5003242;28;20263;-51
2022/05/28 14:21:56;;;;;;;2.13;0.93;;;;;;;;;;5035615;28;20220;-49
2022/05/28 14:24:29;;;;;;;1.95;0.85;;;;;;;;;;5007948;28;20237;-53
2022/05/28 14:27:17;;;;;;;3.70;0.88;;;;;;;;;;5036382;28;20228;-49
2022/05/28 14:29:46;;;;;;;2.17;0.70;;;;;;;;;;4998706;28;20665;-50
2022/05/28 14:32:16;;;;;;;5.00;0.85;;;;;;;;;;4990835;28;20232;-48
2022/05/28 14:34:45;;;;;;;1.65;0.90;;;;;;;;;;4991934;28;20296;-47
2022/05/28 14:37:24;;;;;;;2.72;0.80;;;;;;;;;;4991447;28;20222;-50
2022/05/28 14:39:51;;;;;;;1.00;0.73;;;;;;;;;;5011060;28;20283;-52
2022/05/28 14:42:40;;;;;;;2.33;0.80;;;;;;;;;;5006804;28;20588;-46
2022/05/28 14:45:24;;;;;;;1.45;0.70;;;;;;;;;;5005147;28;20686;-53
2022/05/28 14:47:54;;;;;;;1.63;0.63;;;;;;;;;;5002252;28;20233;-49
2022/05/28 14:50:43;;;;;;;1.67;0.60;;;;;;;;;;4999678;28;20221;-50
2022/05/28 14:53:34;;;;;;;0.95;0.50;;;;;;;;;;5002103;28;20226;-50
2022/05/28 14:56:19;;;;;;;1.17;0.50;;;;;;;;;;5031026;28;20221;-47
2022/05/28 14:58:48;;;;;;;3.10;0.60;;;;;;;;;;5014657;28;20229;-51
2022/05/28 15:01:36;;;;;;;1.90;0.60;;;;;;;;;;5015869;28;20221;-50
2022/05/28 15:04:31;;;;;;;2.80;0.90;;;;;;;;;;5013425;28;20213;-51
2022/05/28 15:06:59;;;;;;;2.33;0.60;;;;;;;;;;5015426;28;20276;-50
2022/05/28 15:09:29;;;;;;;1.90;0.70;;;;;;;;;;5008714;28;20668;-48
2022/05/28 15:12:03;;;;;;;1.50;0.68;;;;;;;;;;5011427;28;20221;-46
2022/05/28 15:14:31;;;;;;;3.47;0.60;;;;;;;;;;4998830;28;20244;-50
2022/05/28 15:16:59;;;;;;;1.17;0.50;;;;;;;;;;5015339;28;20217;-46
2022/05/28 15:19:26;;;;;;;2.78;0.75;;;;;;;;;;5015687;28;20574;-51
2022/05/28 15:21:53;;;;;;;4.20;0.88;;;;;;;;;;5006020;28;20237;-45